createdAt,value
2022-09-15T08:36:15.757Z,1.23
2022-09-15T08:38:18.782Z,1.50
2022-09-15T08:40:26.835Z,1.40
2022-09-15T08:42:30.608Z,1.35
2022-09-15T08:44:59.651Z,1.40
2022-09-15T08:47:15.735Z,1.65
2022-09-15T08:49:51.640Z,1.50
2022-09-15T08:52:01.104Z,1.65
2022-09-15T08:54:11.441Z,1.37
2022-09-15T08:56:21.064Z,1.60
2022-09-15T08:58:27.143Z,1.30
2022-09-15T09:00:31.445Z,1.10
2022-09-15T09:02:57.533Z,1.30
2022-09-15T09:05:11.761Z,1.83
2022-09-15T09:07:43.364Z,1.35
2022-09-15T09:10:10.078Z,1.83
2022-09-15T09:12:44.826Z,1.25
2022-09-15T09:14:54.737Z,1.30
2022-09-15T09:17:24.541Z,1.15
2022-09-15T09:19:56.574Z,1.30
2022-09-15T09:22:17.916Z,1.12
2022-09-15T09:24:34.665Z,1.20
2022-09-15T09:26:37.270Z,0.98
2022-09-15T09:28:46.348Z,0.85
2022-09-15T09:30:48.832Z,1.17
2022-09-15T09:32:55.897Z,1.25
2022-09-15T09:35:05.300Z,1.15
2022-09-15T09:37:11.129Z,1.00
2022-09-15T09:39:15.887Z,1.37
2022-09-15T09:41:28.590Z,1.10
2022-09-15T09:43:32.013Z,1.05
2022-09-15T09:45:34.935Z,1.02
2022-09-15T09:47:39.394Z,1.00
2022-09-15T09:49:48.485Z,1.23
2022-09-15T09:51:53.529Z,1.60
2022-09-15T09:53:55.771Z,1.65
2022-09-15T09:56:24.712Z,1.02
2022-09-15T09:58:27.333Z,1.02
2022-09-15T10:00:34.304Z,1.10
2022-09-15T10:02:47.234Z,1.05
2022-09-15T10:05:12.293Z,1.40
2022-09-15T10:07:17.657Z,1.65
2022-09-15T10:09:20.728Z,1.30
2022-09-15T10:11:41.010Z,1.20
2022-09-15T10:13:52.868Z,1.65
2022-09-15T10:15:58.712Z,1.25
2022-09-15T10:18:01.791Z,1.58
2022-09-15T10:20:19.436Z,1.50
2022-09-15T10:22:32.655Z,0.98
2022-09-15T10:24:38.597Z,1.25
2022-09-15T10:26:42.409Z,1.00
2022-09-15T10:28:45.590Z,1.20
2022-09-15T10:31:13.671Z,1.10
2022-09-15T10:33:24.351Z,1.02
2022-09-15T10:35:32.830Z,1.08
2022-09-15T10:38:12.255Z,1.50
2022-09-15T10:40:37.519Z,1.60
2022-09-15T10:42:51.720Z,1.17
2022-09-15T10:45:12.444Z,1.58
2022-09-15T10:47:33.198Z,1.55
2022-09-15T10:50:03.592Z,1.30
2022-09-15T10:52:28.009Z,1.17
2022-09-15T10:55:15.331Z,1.48
2022-09-15T10:57:56.994Z,1.50
2022-09-15T11:00:13.278Z,1.40
2022-09-15T11:02:27.734Z,1.27
2022-09-15T11:04:51.631Z,1.70
2022-09-15T11:07:12.305Z,1.33
2022-09-15T11:09:27.751Z,1.65
2022-09-15T11:11:39.534Z,1.85
2022-09-15T11:13:44.505Z,1.45
2022-09-15T11:16:11.926Z,2.08
2022-09-15T11:18:49.985Z,2.00
2022-09-15T11:21:07.150Z,1.83
2022-09-15T11:23:34.814Z,1.30
2022-09-15T11:25:42.316Z,1.73
2022-09-15T11:27:53.922Z,1.58
2022-09-15T11:30:05.215Z,1.40
2022-09-15T11:32:15.780Z,1.83
2022-09-15T11:34:30.748Z,1.95
2022-09-15T11:36:51.438Z,1.83
2022-09-15T11:39:01.938Z,2.20
2022-09-15T11:41:33.623Z,2.08
2022-09-15T11:44:01.830Z,2.83
2022-09-15T11:46:13.452Z,2.67
2022-09-15T11:48:32.068Z,2.37
2022-09-15T11:50:38.856Z,2.20
2022-09-15T11:52:53.228Z,2.20
2022-09-15T11:55:21.905Z,3.10
2022-09-15T11:57:50.575Z,2.28
2022-09-15T12:00:00.728Z,3.80
2022-09-15T12:02:09.210Z,2.10
2022-09-15T12:04:22.065Z,2.25
2022-09-15T12:06:35.005Z,2.22
2022-09-15T12:08:51.468Z,2.53
2022-09-15T12:10:57.818Z,2.10
2022-09-15T12:13:01.223Z,2.75
2022-09-15T12:15:03.801Z,2.10
2022-09-15T12:17:09.810Z,2.30
2022-09-15T12:19:33.612Z,2.05
2022-09-15T12:22:00.832Z,2.33
2022-09-15T12:24:18.917Z,2.37
2022-09-15T12:26:23.452Z,2.78
2022-09-15T12:28:34.390Z,2.35
2022-09-15T12:30:42.803Z,2.55
2022-09-15T12:32:45.067Z,2.97
2022-09-15T12:35:16.489Z,2.33
2022-09-15T12:37:19.100Z,2.45
2022-09-15T12:39:40.836Z,2.20
2022-09-15T12:41:56.702Z,2.17
2022-09-15T12:44:06.092Z,2.20
2022-09-15T12:46:18.633Z,2.20
2022-09-15T12:48:27.654Z,2.60
2022-09-15T12:50:36.901Z,2.65
2022-09-15T12:52:51.542Z,2.42
2022-09-15T12:55:00.789Z,3.37
2022-09-15T12:57:03.687Z,2.58
2022-09-15T12:59:11.901Z,2.75
2022-09-15T13:01:23.101Z,2.60
2022-09-15T13:03:29.082Z,3.37
2022-09-15T13:05:52.441Z,3.85
2022-09-15T13:07:58.430Z,4.12
2022-09-15T13:10:10.817Z,2.03
2022-09-15T13:12:17.723Z,1.98
2022-09-15T13:21:56.945Z,2.72
